createdAt,value
2022-08-19T00:01:59.112Z,24.10
2022-08-19T00:04:30.659Z,24.17
2022-08-19T00:06:58.703Z,24.15
2022-08-19T00:09:26.278Z,23.93
2022-08-19T00:11:56.422Z,24.03
2022-08-19T00:14:26.117Z,24.08
2022-08-19T00:16:55.800Z,24.17
2022-08-19T00:19:24.110Z,24.07
2022-08-19T00:21:52.100Z,24.21
2022-08-19T00:24:19.992Z,24.15
2022-08-19T00:26:47.389Z,24.08
2022-08-19T00:29:17.712Z,23.99
2022-08-19T00:31:46.615Z,23.95
2022-08-19T00:34:15.528Z,23.78
2022-08-19T00:36:43.523Z,23.91
2022-08-19T00:39:11.958Z,23.81
2022-08-19T00:41:39.575Z,23.33
2022-08-19T00:44:13.731Z,23.21
2022-08-19T00:46:43.747Z,23.15
2022-08-19T00:49:15.733Z,23.23
2022-08-19T00:51:45.965Z,23.09
2022-08-19T00:54:17.131Z,22.84
2022-08-19T00:56:45.119Z,22.69
2022-08-19T00:59:12.201Z,22.74
2022-08-19T01:01:42.041Z,22.91
2022-08-19T01:04:09.398Z,22.87
2022-08-19T01:06:44.211Z,22.67
2022-08-19T01:09:12.443Z,22.82
2022-08-19T01:11:43.755Z,22.74
2022-08-19T01:14:11.664Z,22.72
2022-08-19T01:16:41.634Z,22.88
2022-08-19T01:19:24.018Z,23.34
2022-08-19T01:22:11.777Z,23.35
2022-08-19T01:24:50.007Z,23.26
2022-08-19T01:27:18.130Z,23.48
2022-08-19T01:29:45.995Z,23.43
2022-08-19T01:32:32.327Z,23.34
2022-08-19T01:35:03.280Z,23.16
2022-08-19T01:37:42.315Z,23.04
2022-08-19T01:40:10.351Z,23.03
2022-08-19T01:42:38.153Z,22.91
2022-08-19T01:45:07.290Z,22.88
2022-08-19T01:47:37.175Z,23.07
2022-08-19T01:50:05.161Z,23.14
2022-08-19T01:52:32.176Z,22.68
2022-08-19T01:54:59.392Z,22.55
2022-08-19T01:57:27.055Z,22.55
2022-08-19T01:59:54.950Z,22.39
2022-08-19T02:02:22.097Z,22.54
2022-08-19T02:04:49.390Z,22.59
2022-08-19T02:07:16.489Z,22.62
2022-08-19T02:09:43.679Z,22.79
2022-08-19T02:12:10.807Z,22.63
2022-08-19T02:14:38.343Z,22.63
2022-08-19T02:17:05.525Z,22.40
2022-08-19T02:19:33.686Z,22.62
2022-08-19T02:22:01.287Z,22.50
2022-08-19T02:24:28.776Z,22.41
2022-08-19T02:26:55.838Z,22.66
2022-08-19T02:29:23.393Z,22.77
2022-08-19T02:31:50.506Z,22.79
2022-08-19T02:34:17.992Z,22.63
2022-08-19T02:36:45.215Z,22.68
2022-08-19T02:39:19.719Z,22.85
2022-08-19T02:41:46.850Z,22.71
2022-08-19T02:44:29.378Z,22.81
2022-08-19T02:46:58.913Z,22.68
2022-08-19T02:49:26.053Z,22.58
2022-08-19T02:51:53.175Z,22.41
2022-08-19T02:54:20.578Z,22.30
2022-08-19T02:56:47.638Z,22.15
2022-08-19T02:59:14.897Z,22.37
2022-08-19T03:01:43.155Z,22.27
2022-08-19T03:04:14.099Z,22.39
2022-08-19T03:06:42.896Z,22.18
2022-08-19T03:09:10.743Z,22.31
2022-08-19T03:11:38.932Z,22.21
2022-08-19T03:14:08.473Z,22.14
2022-08-19T03:16:47.215Z,21.77
2022-08-19T03:19:17.211Z,21.77
2022-08-19T03:21:48.019Z,21.83
2022-08-19T03:24:16.322Z,21.94
2022-08-19T03:26:46.851Z,22.13
2022-08-19T03:29:14.074Z,22.17
2022-08-19T03:31:52.723Z,22.03
2022-08-19T03:34:31.210Z,21.89
2022-08-19T03:37:01.696Z,21.79
2022-08-19T03:39:29.238Z,21.53
2022-08-19T03:42:30.205Z,21.58
2022-08-19T03:44:48.937Z,21.64
2022-08-19T03:47:17.637Z,21.59
2022-08-19T03:49:45.785Z,21.75
2022-08-19T03:52:13.142Z,21.83
2022-08-19T03:54:40.406Z,22.14
2022-08-19T03:57:07.946Z,22.10
2022-08-19T03:59:37.822Z,21.86
2022-08-19T04:02:13.287Z,21.25
2022-08-19T04:04:42.531Z,21.43
2022-08-19T04:07:10.905Z,21.70
2022-08-19T04:09:40.022Z,21.63
2022-08-19T04:12:08.160Z,22.07
2022-08-19T04:14:36.076Z,22.26
2022-08-19T04:17:07.125Z,22.55
2022-08-19T04:19:36.698Z,22.72
2022-08-19T04:22:05.365Z,22.74
2022-08-19T04:24:33.103Z,22.50
2022-08-19T04:27:04.112Z,22.42
2022-08-19T04:29:32.419Z,22.53
2022-08-19T04:32:09.000Z,22.60
2022-08-19T04:35:02.601Z,22.65
2022-08-19T04:37:29.526Z,22.78
2022-08-19T04:40:24.828Z,22.81
2022-08-19T04:42:52.313Z,22.65
2022-08-19T04:45:19.467Z,22.87
2022-08-19T04:47:58.235Z,22.72
2022-08-19T04:50:28.598Z,22.44
2022-08-19T04:52:57.428Z,22.45
2022-08-19T04:55:26.896Z,22.59
2022-08-19T04:57:55.738Z,22.45
2022-08-19T05:00:23.433Z,22.61
2022-08-19T05:02:50.793Z,22.43
2022-08-19T05:05:19.650Z,22.34
2022-08-19T05:07:49.386Z,22.33
2022-08-19T05:10:19.589Z,22.38
2022-08-19T05:12:52.722Z,22.54
2022-08-19T05:15:22.177Z,22.59
2022-08-19T05:18:28.548Z,22.89
2022-08-19T05:21:17.603Z,23.20
2022-08-19T05:23:46.215Z,23.32
2022-08-19T05:26:13.383Z,23.67
2022-08-19T05:28:40.502Z,23.93
2022-08-19T05:31:08.389Z,23.94
2022-08-19T05:33:37.105Z,24.19
2022-08-19T05:36:05.704Z,24.33
2022-08-19T05:38:33.258Z,24.43
2022-08-19T05:41:00.368Z,24.63
2022-08-19T05:43:27.430Z,24.85
2022-08-19T05:45:54.424Z,25.06
2022-08-19T05:48:21.639Z,25.10
2022-08-19T05:50:51.431Z,24.85
2022-08-19T05:53:18.705Z,24.68
2022-08-19T05:55:46.199Z,24.46
2022-08-19T05:58:14.215Z,24.45
2022-08-19T06:00:44.556Z,24.43
2022-08-19T06:03:13.068Z,24.42
2022-08-19T06:05:49.440Z,24.37
2022-08-19T06:08:20.303Z,24.11
2022-08-19T06:10:47.849Z,24.10
2022-08-19T06:13:15.877Z,24.17
2022-08-19T06:15:45.445Z,24.09
2022-08-19T06:18:12.798Z,24.06
2022-08-19T06:20:55.349Z,24.14
2022-08-19T06:23:24.210Z,24.34
2022-08-19T06:25:51.645Z,24.23
2022-08-19T06:28:19.088Z,24.30
2022-08-19T06:30:46.271Z,24.14
2022-08-19T06:33:13.465Z,24.34
2022-08-19T06:35:42.308Z,24.49
2022-08-19T06:38:10.597Z,24.73
2022-08-19T06:40:39.265Z,25.01
2022-08-19T06:43:06.618Z,25.73
2022-08-19T06:45:39.815Z,25.96
2022-08-19T06:48:08.085Z,25.93
2022-08-19T06:50:36.809Z,26.45
2022-08-19T06:53:07.284Z,26.62
2022-08-19T06:55:34.564Z,26.29
2022-08-19T06:58:06.597Z,26.55
2022-08-19T07:00:35.004Z,26.45
2022-08-19T07:03:06.000Z,26.55
2022-08-19T07:05:45.530Z,26.38
2022-08-19T07:08:14.392Z,26.55
2022-08-19T07:10:45.976Z,26.71
2022-08-19T07:13:13.294Z,27.01
2022-08-19T07:15:40.328Z,27.47
2022-08-19T07:18:07.372Z,27.29
2022-08-19T07:20:40.324Z,27.75
2022-08-19T07:23:09.545Z,28.13
2022-08-19T07:25:39.034Z,28.31
2022-08-19T07:28:18.969Z,28.64
2022-08-19T07:30:51.240Z,28.63
2022-08-19T07:33:20.396Z,28.62
2022-08-19T07:35:47.484Z,28.43
2022-08-19T07:38:15.904Z,28.66
2022-08-19T07:40:44.211Z,29.00
2022-08-19T07:43:14.030Z,28.73
2022-08-19T07:45:44.350Z,29.03
2022-08-19T07:48:11.719Z,28.99
2022-08-19T07:50:38.764Z,29.03
2022-08-19T07:53:05.819Z,29.09
2022-08-19T07:55:41.999Z,29.31
2022-08-19T07:58:13.409Z,29.49
2022-08-19T08:00:40.473Z,29.92
2022-08-19T08:03:07.551Z,30.03
2022-08-19T08:05:52.971Z,30.48
2022-08-19T08:08:44.043Z,30.53
2022-08-19T08:11:15.528Z,30.51
2022-08-19T08:13:43.893Z,30.22
2022-08-19T08:16:14.373Z,30.01
2022-08-19T08:18:50.246Z,29.72
2022-08-19T08:21:18.483Z,29.70
2022-08-19T08:23:45.880Z,29.57
2022-08-19T08:26:16.048Z,30.22
2022-08-19T08:28:47.867Z,30.89
2022-08-19T08:31:15.846Z,30.93
2022-08-19T08:33:43.458Z,31.17
2022-08-19T08:36:12.085Z,31.50
2022-08-19T08:38:40.506Z,31.06
2022-08-19T08:41:29.926Z,30.86
2022-08-19T08:43:58.401Z,30.26
2022-08-19T08:46:46.947Z,30.22
2022-08-19T08:49:32.800Z,30.05
2022-08-19T08:52:04.386Z,30.68
2022-08-19T08:54:55.673Z,31.12
2022-08-19T08:57:41.030Z,31.29
2022-08-19T09:00:17.837Z,30.90
2022-08-19T09:02:50.609Z,30.62
2022-08-19T09:05:25.801Z,30.54
2022-08-19T09:08:13.640Z,30.92
2022-08-19T09:10:46.591Z,30.48
2022-08-19T09:13:16.718Z,31.44
2022-08-19T09:15:53.623Z,31.83
2022-08-19T09:18:20.960Z,31.90
2022-08-19T09:20:48.962Z,31.75
2022-08-19T09:23:16.601Z,32.21
2022-08-19T09:25:43.759Z,32.32
2022-08-19T09:28:20.355Z,32.07
2022-08-19T09:30:49.608Z,31.57
2022-08-19T09:33:21.098Z,31.90
2022-08-19T09:35:53.368Z,31.94
2022-08-19T09:38:22.766Z,31.87
2022-08-19T09:40:51.183Z,31.50
2022-08-19T09:43:33.299Z,31.22
2022-08-19T09:46:02.899Z,31.37
2022-08-19T09:48:30.746Z,32.05
2022-08-19T09:51:11.952Z,32.42
2022-08-19T09:53:39.702Z,32.98
2022-08-19T09:56:08.309Z,32.93
2022-08-19T09:58:37.425Z,32.92
2022-08-19T10:01:06.299Z,33.31
2022-08-19T10:03:35.246Z,32.69
2022-08-19T10:06:05.016Z,32.98
2022-08-19T10:08:50.121Z,33.76
2022-08-19T10:11:28.566Z,33.41
2022-08-19T10:14:06.906Z,33.05
2022-08-19T10:16:34.266Z,33.13
2022-08-19T10:19:06.957Z,33.41
2022-08-19T10:21:35.523Z,33.71
2022-08-19T10:24:06.422Z,33.08
2022-08-19T10:26:42.726Z,32.96
2022-08-19T10:29:12.888Z,32.93
2022-08-19T10:32:01.077Z,32.63
2022-08-19T10:34:32.121Z,32.12
2022-08-19T10:37:01.805Z,31.66
2022-08-19T10:39:42.451Z,31.76
2022-08-19T10:42:14.812Z,32.21
2022-08-19T10:44:43.205Z,32.64
2022-08-19T10:50:35.518Z,32.90
2022-08-19T10:53:09.910Z,32.68
2022-08-19T10:55:55.549Z,32.63
2022-08-19T10:58:24.737Z,32.66
2022-08-19T11:00:57.516Z,33.16
2022-08-19T11:03:26.471Z,33.36
2022-08-19T11:06:05.497Z,32.85
2022-08-19T11:08:33.715Z,32.29
2022-08-19T11:11:08.875Z,32.44
2022-08-19T11:13:40.617Z,32.82
2022-08-19T11:16:14.394Z,32.93
2022-08-19T11:18:54.488Z,32.99
2022-08-19T11:22:02.565Z,33.21
2022-08-19T11:24:32.121Z,32.95
2022-08-19T11:27:07.863Z,32.64
2022-08-19T11:29:41.684Z,32.54
2022-08-19T11:32:12.620Z,32.27
2022-08-19T11:34:40.437Z,31.82
2022-08-19T11:37:07.475Z,31.82
2022-08-19T11:39:37.854Z,30.96
2022-08-19T11:42:21.344Z,30.63
2022-08-19T11:44:48.796Z,30.40
2022-08-19T11:47:16.061Z,30.35
2022-08-19T11:49:43.871Z,31.33
2022-08-19T11:52:13.050Z,32.18
2022-08-19T11:54:43.322Z,32.47
2022-08-19T11:57:13.915Z,32.91
2022-08-19T11:59:54.172Z,33.40
2022-08-19T12:02:22.828Z,33.19
2022-08-19T12:04:50.625Z,33.25
2022-08-19T12:07:20.540Z,33.75
2022-08-19T12:09:50.013Z,34.05
2022-08-19T12:12:19.510Z,34.59
2022-08-19T12:14:47.704Z,35.27
2022-08-19T12:17:15.105Z,34.95
2022-08-19T12:19:42.573Z,33.91
2022-08-19T12:22:09.868Z,33.26
2022-08-19T12:24:37.147Z,33.04
2022-08-19T12:27:04.371Z,32.51
2022-08-19T12:29:31.556Z,33.10
2022-08-19T12:32:05.033Z,33.98
2022-08-19T12:34:34.293Z,34.47
2022-08-19T12:37:02.491Z,34.85
2022-08-19T12:39:29.581Z,33.83
2022-08-19T12:41:56.721Z,33.59
2022-08-19T12:44:28.934Z,33.47
2022-08-19T12:46:57.748Z,32.41
2022-08-19T12:49:52.603Z,32.08
2022-08-19T12:52:17.018Z,32.58
2022-08-19T12:54:53.954Z,32.62
2022-08-19T12:57:32.317Z,31.49
2022-08-19T13:00:11.562Z,29.90
2022-08-19T13:02:41.753Z,29.11
2022-08-19T13:05:12.074Z,28.70
2022-08-19T13:07:40.799Z,28.46
2022-08-19T13:10:10.398Z,27.98
2022-08-19T13:12:37.886Z,27.80
2022-08-19T13:15:10.928Z,27.67
2022-08-19T13:17:39.823Z,27.40
2022-08-19T13:20:11.525Z,27.53
2022-08-19T13:22:38.823Z,27.56
2022-08-19T13:25:07.740Z,27.93
2022-08-19T13:27:34.882Z,27.88
2022-08-19T13:30:21.439Z,27.80
2022-08-19T13:33:07.214Z,28.07
2022-08-19T13:35:34.575Z,28.30
2022-08-19T13:38:09.162Z,28.11
2022-08-19T13:40:40.143Z,27.85
2022-08-19T13:43:17.841Z,27.53
2022-08-19T13:45:57.102Z,27.03
2022-08-19T13:48:27.607Z,27.02
2022-08-19T13:50:55.338Z,26.79
2022-08-19T13:53:23.203Z,26.57
2022-08-19T13:55:51.583Z,26.60
2022-08-19T13:58:18.652Z,26.65
2022-08-19T14:00:47.361Z,26.43
2022-08-19T14:03:15.668Z,26.28
2022-08-19T14:05:42.641Z,26.12
2022-08-19T14:08:10.384Z,26.23
2022-08-19T14:10:37.442Z,26.10
2022-08-19T14:13:05.308Z,26.11
2022-08-19T14:15:33.255Z,26.01
2022-08-19T14:18:00.565Z,25.93
2022-08-19T14:20:27.746Z,25.88
2022-08-19T14:22:55.818Z,25.73
2022-08-19T14:25:26.727Z,25.83
2022-08-19T14:27:54.186Z,25.80
2022-08-19T14:30:28.903Z,25.89
2022-08-19T14:32:57.875Z,25.82
2022-08-19T14:35:26.096Z,25.73
2022-08-19T14:37:56.771Z,25.64
2022-08-19T14:40:27.125Z,25.64
2022-08-19T14:43:00.470Z,25.59
2022-08-19T14:45:29.544Z,25.53
2022-08-19T14:47:57.051Z,25.62
2022-08-19T14:50:24.120Z,25.74
2022-08-19T14:52:52.921Z,25.96
2022-08-19T14:55:20.312Z,25.99
2022-08-19T14:57:47.701Z,25.94
2022-08-19T15:00:15.508Z,25.76
2022-08-19T15:02:45.482Z,25.80
2022-08-19T15:05:13.787Z,25.68
2022-08-19T15:07:42.045Z,25.84
2022-08-19T15:10:10.969Z,25.90
2022-08-19T15:12:43.729Z,25.91
2022-08-19T15:15:16.323Z,25.88
2022-08-19T15:17:54.968Z,25.78
2022-08-19T15:20:23.822Z,25.94
2022-08-19T15:22:51.368Z,25.87
2022-08-19T15:25:20.020Z,25.84
2022-08-19T15:27:48.810Z,25.67
2022-08-19T15:30:22.567Z,25.69
2022-08-19T15:32:49.928Z,25.79
2022-08-19T15:35:19.458Z,25.65
2022-08-19T15:37:49.761Z,25.58
2022-08-19T15:40:17.097Z,25.47
2022-08-19T15:42:44.802Z,25.39
2022-08-19T15:45:13.996Z,25.39
2022-08-19T15:47:41.864Z,25.38
2022-08-19T15:50:11.410Z,25.29
2022-08-19T15:52:50.063Z,25.30
2022-08-19T15:55:27.694Z,25.15
2022-08-19T15:58:28.411Z,25.19
2022-08-19T16:01:40.908Z,25.08
2022-08-19T16:04:26.963Z,25.05
2022-08-19T16:07:00.108Z,25.05
2022-08-19T16:09:29.835Z,24.96
2022-08-19T16:12:02.664Z,25.01
2022-08-19T16:14:32.353Z,25.07
2022-08-19T16:16:59.721Z,24.99
2022-08-19T16:19:27.504Z,24.79
2022-08-19T16:21:56.877Z,24.58
2022-08-19T16:24:27.039Z,24.56
2022-08-19T16:26:55.343Z,24.49
2022-08-19T16:29:33.650Z,24.29
2022-08-19T16:32:03.634Z,23.98
2022-08-19T16:34:31.091Z,23.76
2022-08-19T16:36:58.082Z,23.58
2022-08-19T16:39:25.212Z,23.43
2022-08-19T16:41:52.197Z,23.31
2022-08-19T16:44:21.102Z,23.18
2022-08-19T16:46:58.806Z,23.13
2022-08-19T16:49:52.906Z,23.07
2022-08-19T16:52:16.656Z,23.01
2022-08-19T16:54:44.834Z,22.88
2022-08-19T16:57:12.646Z,22.88
2022-08-19T16:59:45.019Z,22.87
2022-08-19T17:02:22.557Z,22.73
2022-08-19T17:04:57.822Z,22.89
2022-08-19T17:07:33.334Z,23.15
2022-08-19T17:10:02.286Z,23.20
2022-08-19T17:12:32.090Z,23.37
2022-08-19T17:15:04.143Z,23.32
2022-08-19T17:17:32.281Z,23.59
2022-08-19T17:20:01.261Z,23.68
2022-08-19T17:22:31.729Z,23.67
2022-08-19T17:24:59.363Z,23.59
2022-08-19T17:27:31.344Z,23.47
2022-08-19T17:30:02.975Z,23.39
2022-08-19T17:32:35.670Z,23.46
2022-08-19T17:35:04.213Z,23.50
2022-08-19T17:37:31.677Z,23.50
2022-08-19T17:39:58.869Z,23.46
2022-08-19T17:42:26.665Z,23.64
2022-08-19T17:44:53.687Z,23.66
2022-08-19T17:47:21.249Z,23.52
2022-08-19T17:49:48.480Z,23.46
2022-08-19T17:52:15.503Z,23.44
2022-08-19T17:54:42.623Z,23.62
2022-08-19T17:57:10.256Z,23.60
2022-08-19T17:59:38.556Z,23.57
2022-08-19T18:02:07.309Z,23.63
2022-08-19T18:04:38.510Z,23.76
2022-08-19T18:07:06.911Z,23.61
2022-08-19T18:09:42.384Z,23.45
2022-08-19T18:12:14.260Z,23.33
2022-08-19T18:14:42.194Z,23.24
2022-08-19T18:17:13.187Z,23.04
2022-08-19T18:19:43.218Z,23.03
2022-08-19T18:22:13.110Z,23.07
2022-08-19T18:24:41.746Z,23.21
2022-08-19T18:27:10.194Z,23.37
2022-08-19T18:29:38.447Z,23.47
2022-08-19T18:32:12.665Z,23.41
2022-08-19T18:34:42.592Z,23.30
2022-08-19T18:37:10.570Z,23.33
2022-08-19T18:40:14.515Z,23.41
2022-08-19T18:43:03.923Z,23.22
2022-08-19T18:45:50.610Z,23.29
2022-08-19T18:48:36.257Z,23.24
2022-08-19T18:51:04.052Z,23.23
2022-08-19T18:53:33.711Z,22.82
2022-08-19T18:56:00.961Z,22.83
2022-08-19T18:58:34.187Z,23.08
2022-08-19T19:01:11.265Z,23.05
2022-08-19T19:03:47.858Z,22.88
2022-08-19T19:06:22.566Z,23.01
2022-08-19T19:08:51.213Z,22.85
2022-08-19T19:11:23.661Z,22.93
2022-08-19T19:13:51.451Z,22.74
2022-08-19T19:16:23.762Z,22.72
2022-08-19T19:18:53.093Z,22.60
2022-08-19T19:21:23.190Z,22.59
2022-08-19T19:23:51.711Z,22.62
2022-08-19T19:26:19.331Z,22.62
2022-08-19T19:28:46.395Z,22.67
2022-08-19T19:31:16.934Z,22.60
2022-08-19T19:33:45.438Z,22.52
2022-08-19T19:36:13.259Z,22.54
2022-08-19T19:38:48.371Z,22.56
2022-08-19T19:41:19.794Z,22.54
2022-08-19T19:43:46.960Z,22.48
2022-08-19T19:46:16.520Z,22.42
2022-08-19T19:48:47.588Z,22.38
2022-08-19T19:51:15.007Z,22.33
2022-08-19T19:53:42.424Z,22.32
2022-08-19T19:56:10.287Z,22.27
2022-08-19T19:58:37.328Z,22.25
2022-08-19T20:01:09.686Z,22.38
2022-08-19T20:03:37.021Z,22.24
2022-08-19T20:06:04.110Z,22.22
2022-08-19T20:08:49.669Z,22.16
2022-08-19T20:11:33.358Z,22.10
2022-08-19T20:14:03.880Z,22.01
2022-08-19T20:16:31.857Z,21.97
2022-08-19T20:19:00.582Z,21.78
2022-08-19T20:21:32.348Z,21.67
2022-08-19T20:24:09.024Z,21.63
2022-08-19T20:26:36.901Z,21.72
2022-08-19T20:29:13.792Z,21.63
2022-08-19T20:31:55.143Z,21.60
2022-08-19T20:34:26.388Z,21.48
2022-08-19T20:36:53.593Z,21.25
2022-08-19T20:39:20.668Z,21.17
2022-08-19T20:41:47.717Z,21.16
2022-08-19T20:44:14.970Z,21.07
2022-08-19T20:46:42.018Z,21.06
2022-08-19T20:49:22.005Z,21.03
2022-08-19T20:51:49.048Z,21.02
2022-08-19T20:54:16.134Z,20.82
2022-08-19T20:56:43.136Z,20.73
2022-08-19T20:59:10.782Z,20.70
2022-08-19T21:01:37.868Z,20.66
2022-08-19T21:04:04.897Z,20.70
2022-08-19T21:06:31.992Z,20.76
2022-08-19T21:08:59.434Z,20.68
2022-08-19T21:11:26.429Z,20.65
2022-08-19T21:13:53.404Z,20.60
2022-08-19T21:16:20.459Z,20.59
2022-08-19T21:18:48.384Z,20.40
2022-08-19T21:21:16.114Z,20.35
2022-08-19T21:23:44.154Z,20.33
2022-08-19T21:26:11.347Z,20.20
2022-08-19T21:28:38.338Z,20.13
2022-08-19T21:31:07.262Z,20.07
2022-08-19T21:33:34.610Z,20.03
2022-08-19T21:36:01.717Z,20.01
2022-08-19T21:38:29.174Z,19.88
2022-08-19T21:40:56.816Z,19.94
2022-08-19T21:43:24.366Z,19.83
2022-08-19T21:45:51.431Z,19.93
2022-08-19T21:48:18.468Z,19.97
2022-08-19T21:50:48.232Z,20.03
2022-08-19T21:53:18.947Z,20.15
2022-08-19T21:55:52.799Z,20.12
2022-08-19T21:58:28.247Z,20.20
2022-08-19T22:01:05.777Z,20.19
2022-08-19T22:03:34.015Z,20.12
2022-08-19T22:06:01.063Z,19.89
2022-08-19T22:08:28.182Z,19.73
2022-08-19T22:10:55.292Z,19.56
2022-08-19T22:13:22.449Z,19.26
2022-08-19T22:15:52.027Z,19.17
2022-08-19T22:18:19.169Z,19.03
2022-08-19T22:20:46.186Z,18.96
2022-08-19T22:23:13.536Z,18.83
2022-08-19T22:25:44.571Z,18.88
2022-08-19T22:28:13.765Z,18.76
2022-08-19T22:30:43.200Z,18.69
2022-08-19T22:33:13.650Z,18.68
2022-08-19T22:35:42.349Z,18.61
2022-08-19T22:38:12.056Z,18.69
2022-08-19T22:40:43.941Z,18.69
2022-08-19T22:43:15.252Z,18.57
2022-08-19T22:45:43.882Z,18.65
2022-08-19T22:48:14.021Z,18.57
2022-08-19T22:50:41.900Z,18.60
2022-08-19T22:53:10.609Z,18.53
2022-08-19T22:55:38.999Z,18.55
2022-08-19T22:58:06.106Z,18.77
2022-08-19T23:00:33.975Z,18.68
2022-08-19T23:03:02.313Z,18.58
2022-08-19T23:05:30.631Z,18.45
2022-08-19T23:07:58.970Z,18.31
2022-08-19T23:10:29.221Z,18.20
2022-08-19T23:12:58.859Z,18.17
2022-08-19T23:15:28.629Z,18.13
2022-08-19T23:17:58.492Z,18.14
2022-08-19T23:20:28.231Z,18.11
2022-08-19T23:22:56.960Z,18.08
2022-08-19T23:25:27.441Z,18.21
2022-08-19T23:28:13.819Z,18.31
2022-08-19T23:30:44.661Z,18.18
2022-08-19T23:33:50.601Z,18.20
2022-08-19T23:36:18.831Z,17.99
2022-08-19T23:38:48.107Z,18.04
2022-08-19T23:41:20.019Z,17.92
2022-08-19T23:43:47.231Z,17.96
2022-08-19T23:46:28.076Z,17.94
2022-08-19T23:48:56.544Z,18.10
2022-08-19T23:51:24.072Z,18.26
2022-08-19T23:53:51.156Z,18.25
2022-08-19T23:56:18.383Z,18.14
2022-08-19T23:58:49.171Z,17.97
